Time;durP1;ratioP1;P1;durP2;ratioP2;P2;SDS_P1;SDS_P2;PMS_P1;PMS_P2;Temp;Humidity;BMP_temperature;BMP_pressure;BME280_temperature;BME280_humidity;BME280_pressure;Samples;Min_cycle;Max_cycle;Signal;HPM_P1;HPM_P2
2022/04/04 00:00:40;;;;;;;6.25;4.28;;;6.60;89.70;;;;;;5012733;28;20192;-77
2022/04/04 00:03:07;;;;;;;4.63;4.23;;;6.50;89.80;;;;;;5013959;28;20297;-77
2022/04/04 00:05:34;;;;;;;3.97;3.60;;;6.50;90.10;;;;;;5013640;28;20190;-77
2022/04/04 00:08:00;;;;;;;4.30;3.65;;;6.40;90.20;;;;;;5013820;28;20166;-77
2022/04/04 00:10:26;;;;;;;3.65;3.35;;;6.40;90.40;;;;;;5014673;28;20526;-77
2022/04/04 00:12:52;;;;;;;4.90;3.93;;;6.40;90.60;;;;;;5015163;28;20178;-77
2022/04/04 00:15:18;;;;;;;4.00;3.53;;;6.30;90.60;;;;;;5014831;28;20696;-77
2022/04/04 00:17:45;;;;;;;4.47;3.50;;;6.30;90.90;;;;;;5017018;28;20218;-77
2022/04/04 00:20:11;;;;;;;3.58;3.13;;;6.20;91.10;;;;;;5014689;28;20171;-77
2022/04/04 00:22:37;;;;;;;3.97;3.67;;;6.20;91.20;;;;;;5013122;28;20285;-77
2022/04/04 00:25:04;;;;;;;4.15;3.75;;;6.20;91.60;;;;;;5014019;28;20198;-77
2022/04/04 00:27:30;;;;;;;4.45;4.07;;;6.20;91.40;;;;;;5013632;28;20165;-77
2022/04/04 00:29:56;;;;;;;4.45;4.05;;;6.10;91.40;;;;;;5013684;28;20166;-77
2022/04/04 00:32:22;;;;;;;3.60;3.28;;;6.10;91.70;;;;;;5013311;28;20179;-77
2022/04/04 00:34:48;;;;;;;4.80;3.90;;;6.00;92.00;;;;;;5013343;28;20267;-77
2022/04/04 00:37:15;;;;;;;4.88;4.43;;;6.00;92.00;;;;;;5013201;28;20235;-77
2022/04/04 00:39:41;;;;;;;4.38;3.97;;;6.00;92.30;;;;;;5012821;28;20186;-77
2022/04/04 00:42:07;;;;;;;3.47;3.00;;;6.00;92.40;;;;;;5013266;28;20190;-77
2022/04/04 00:44:33;;;;;;;4.32;3.63;;;5.90;92.50;;;;;;5011794;28;20690;-77
2022/04/04 00:46:59;;;;;;;3.60;3.30;;;5.90;92.60;;;;;;5011999;28;20185;-77
2022/04/04 00:49:25;;;;;;;4.93;4.10;;;5.90;92.80;;;;;;5012560;28;20154;-77
2022/04/04 00:51:51;;;;;;;3.90;3.50;;;5.90;92.90;;;;;;5012827;28;20940;-77
2022/04/04 00:54:18;;;;;;;4.25;3.45;;;5.80;93.40;;;;;;5011484;28;20898;-77
2022/04/04 00:56:45;;;;;;;4.28;3.88;;;5.80;93.10;;;;;;5011700;28;20523;-77
2022/04/04 00:59:16;;;;;;;4.40;3.67;;;5.80;93.20;;;;;;5012682;28;20539;-77
2022/04/04 01:01:41;;;;;;;4.20;3.80;;;5.80;93.50;;;;;;5011543;28;20166;-77
2022/04/04 01:04:08;;;;;;;3.70;3.40;;;5.70;93.40;;;;;;5012682;28;20179;-77
2022/04/04 01:06:38;;;;;;;4.72;3.78;;;5.70;93.60;;;;;;5012787;28;20588;-76
2022/04/04 01:09:04;;;;;;;4.13;3.72;;;5.70;93.90;;;;;;5010965;28;20265;-76
2022/04/04 01:11:30;;;;;;;4.00;3.57;;;5.70;93.90;;;;;;5011283;28;20237;-76
2022/04/04 01:13:56;;;;;;;5.57;4.50;;;5.60;94.10;;;;;;5012547;28;21105;-76
2022/04/04 01:16:21;;;;;;;5.00;4.37;;;5.60;94.20;;;;;;5012428;28;20976;-76
2022/04/04 01:18:47;;;;;;;4.20;3.80;;;5.60;94.40;;;;;;5012181;28;20190;-77
2022/04/04 01:21:17;;;;;;;4.90;4.40;;;5.50;94.50;;;;;;5011041;28;20638;-76
2022/04/04 01:23:43;;;;;;;5.32;3.70;;;5.50;94.70;;;;;;5012174;28;20249;-77
2022/04/04 01:26:13;;;;;;;4.28;3.92;;;5.50;94.70;;;;;;5012195;28;20202;-76
2022/04/04 01:28:40;;;;;;;5.70;3.50;;;5.50;95.00;;;;;;5012089;28;20316;-77
2022/04/04 01:31:07;;;;;;;5.80;3.15;;;5.40;95.40;;;;;;5012088;28;20170;-76
2022/04/04 01:33:33;;;;;;;4.97;4.10;;;5.40;95.10;;;;;;5012345;28;20181;-77
2022/04/04 01:35:59;;;;;;;4.17;3.87;;;5.40;95.30;;;;;;5010867;28;20674;-77
2022/04/04 01:38:26;;;;;;;4.78;4.30;;;5.40;95.40;;;;;;5010543;28;20573;-77
2022/04/04 01:40:53;;;;;;;4.57;4.18;;;5.40;95.40;;;;;;5010832;28;20240;-77
2022/04/04 01:43:19;;;;;;;5.10;3.58;;;5.40;95.60;;;;;;5010689;28;20198;-77
2022/04/04 01:48:36;;;;;;;5.60;3.75;;;5.30;95.80;;;;;;5011808;28;20228;-76
2022/04/04 01:51:02;;;;;;;4.82;4.32;;;5.30;96.20;;;;;;5011710;28;20162;-77
2022/04/04 01:53:29;;;;;;;5.38;3.38;;;5.30;95.90;;;;;;5011828;28;20167;-77
2022/04/04 01:55:58;;;;;;;4.57;3.70;;;5.30;96.10;;;;;;5011698;28;20186;-77
2022/04/04 01:58:24;;;;;;;4.50;4.10;;;5.30;96.30;;;;;;5010500;28;20182;-76
2022/04/04 02:00:52;;;;;;;4.22;3.88;;;5.30;96.50;;;;;;5010565;28;20171;-76
2022/04/04 02:03:17;;;;;;;5.43;4.55;;;5.30;96.50;;;;;;5010498;28;20229;-77
2022/04/04 02:05:43;;;;;;;4.97;4.57;;;5.20;96.70;;;;;;5011283;28;20191;-77
2022/04/04 02:08:09;;;;;;;7.10;4.10;;;5.20;97.00;;;;;;4994012;28;20534;-77
2022/04/04 02:10:34;;;;;;;4.93;3.80;;;5.20;96.80;;;;;;5011639;28;20170;-77
2022/04/04 02:13:00;;;;;;;5.23;4.37;;;5.20;96.90;;;;;;5011677;28;20527;-76
2022/04/04 02:15:27;;;;;;;5.30;4.57;;;5.20;97.10;;;;;;5011758;28;20546;-77
2022/04/04 02:17:53;;;;;;;5.22;4.80;;;5.20;97.00;;;;;;5011380;28;20591;-76
2022/04/04 02:20:19;;;;;;;4.70;4.03;;;5.20;97.20;;;;;;5010433;28;20178;-77
2022/04/04 02:22:45;;;;;;;4.87;4.37;;;5.20;97.30;;;;;;5010543;28;20689;-77
2022/04/04 02:25:12;;;;;;;5.60;3.73;;;5.20;97.50;;;;;;5011337;28;20628;-77
2022/04/04 02:27:38;;;;;;;4.65;4.13;;;5.10;97.50;;;;;;5011479;28;20553;-76
2022/04/04 02:30:04;;;;;;;4.50;3.67;;;5.10;97.50;;;;;;5011540;28;20262;-77
2022/04/04 02:32:31;;;;;;;4.40;3.97;;;5.10;97.60;;;;;;5011716;28;20183;-76
2022/04/04 02:34:57;;;;;;;5.78;4.20;;;5.10;97.80;;;;;;5010097;28;20281;-77
2022/04/04 02:37:22;;;;;;;5.00;4.50;;;5.10;97.90;;;;;;5011220;28;20202;-77
2022/04/04 02:39:48;;;;;;;6.23;4.20;;;5.10;97.90;;;;;;5011299;28;20577;-77
2022/04/04 02:42:14;;;;;;;5.10;4.53;;;5.10;98.10;;;;;;5011387;28;20209;-77
2022/04/04 02:44:39;;;;;;;5.20;4.70;;;5.00;98.00;;;;;;5011254;28;20954;-77
2022/04/04 02:47:05;;;;;;;7.90;5.00;;;5.00;98.30;;;;;;5011290;28;20162;-76
2022/04/04 02:49:31;;;;;;;5.38;4.55;;;5.00;98.30;;;;;;5010252;28;20634;-76
2022/04/04 02:51:57;;;;;;;4.68;4.28;;;5.00;98.30;;;;;;5011287;28;20197;-77
2022/04/04 02:54:24;;;;;;;4.97;4.20;;;5.00;98.60;;;;;;5011451;28;20170;-77
2022/04/04 02:56:50;;;;;;;5.18;4.68;;;5.00;98.90;;;;;;5011487;28;20167;-77
2022/04/04 02:59:16;;;;;;;6.57;4.97;;;4.90;98.80;;;;;;5009849;28;20177;-77
2022/04/04 03:01:48;;;;;;;6.30;4.20;;;4.90;98.80;;;;;;5011078;28;20569;-77
2022/04/04 03:04:15;;;;;;;4.85;4.32;;;4.90;98.80;;;;;;5011535;28;20637;-77
2022/04/04 03:06:41;;;;;;;5.07;4.68;;;4.90;98.90;;;;;;5011516;28;20174;-77
2022/04/04 03:09:07;;;;;;;5.43;4.43;;;4.90;98.90;;;;;;5011303;28;20567;-77
2022/04/04 03:11:33;;;;;;;4.50;4.10;;;4.90;99.00;;;;;;5011339;28;20569;-77
2022/04/04 03:13:58;;;;;;;4.70;4.30;;;4.80;99.00;;;;;;4984948;28;20184;-77
2022/04/04 03:16:24;;;;;;;6.77;5.33;;;4.80;99.00;;;;;;4986960;28;20728;-76
2022/04/04 03:18:51;;;;;;;6.37;5.43;;;4.80;99.10;;;;;;5012811;28;20174;-76
2022/04/04 03:21:17;;;;;;;7.25;5.00;;;4.80;99.50;;;;;;5014732;28;20774;-77
2022/04/04 03:23:43;;;;;;;4.90;4.45;;;4.80;99.40;;;;;;5014858;28;20213;-76
2022/04/04 03:26:09;;;;;;;5.17;4.67;;;4.80;99.40;;;;;;5014597;28;20202;-76
2022/04/04 03:28:36;;;;;;;5.22;4.72;;;4.70;99.40;;;;;;5014564;28;20536;-77
2022/04/04 03:31:04;;;;;;;8.77;5.40;;;4.70;99.50;;;;;;5014385;28;20162;-77
2022/04/04 03:33:34;;;;;;;5.28;4.78;;;4.80;99.60;;;;;;5014706;28;20533;-77
2022/04/04 03:36:00;;;;;;;5.40;4.80;;;4.80;99.80;;;;;;5014464;28;20190;-77
2022/04/04 03:38:27;;;;;;;5.20;4.80;;;4.80;99.70;;;;;;4995773;28;20199;-77
2022/04/04 03:40:53;;;;;;;5.90;5.30;;;4.80;99.70;;;;;;4994838;28;20171;-77
2022/04/04 03:43:19;;;;;;;5.85;5.35;;;4.70;99.90;;;;;;4990413;28;20258;-77
2022/04/04 03:45:46;;;;;;;4.50;4.10;;;4.70;99.90;;;;;;4994263;28;20186;-77
2022/04/04 03:48:12;;;;;;;6.13;5.20;;;4.70;99.90;;;;;;4993346;28;20179;-76
2022/04/04 03:50:39;;;;;;;7.60;5.40;;;4.70;99.90;;;;;;4994219;28;20226;-77
2022/04/04 03:53:06;;;;;;;6.75;5.65;;;4.70;99.90;;;;;;4993752;28;20505;-76
2022/04/04 03:55:38;;;;;;;6.07;5.03;;;4.70;99.90;;;;;;4994762;28;20191;-76
2022/04/04 03:58:10;;;;;;;6.03;4.18;;;4.70;99.90;;;;;;4992802;28;20179;-77
2022/04/04 04:00:38;;;;;;;6.93;5.22;;;4.70;99.90;;;;;;4993642;28;20491;-76
2022/04/04 04:03:04;;;;;;;5.28;4.30;;;4.70;99.90;;;;;;4999767;28;20206;-76
2022/04/04 04:05:30;;;;;;;5.60;5.10;;;4.70;99.90;;;;;;5013831;28;20257;-76
2022/04/04 04:07:56;;;;;;;6.43;4.97;;;4.70;99.90;;;;;;5016153;28;20201;-76
2022/04/04 04:10:22;;;;;;;5.73;4.73;;;4.70;99.90;;;;;;5016229;28;20281;-76
2022/04/04 04:12:49;;;;;;;5.27;4.63;;;4.70;99.90;;;;;;5001810;28;20655;-77
2022/04/04 04:15:20;;;;;;;6.82;5.20;;;4.70;99.90;;;;;;5016895;28;20994;-77
2022/04/04 04:17:46;;;;;;;7.57;6.20;;;4.70;99.90;;;;;;5017444;28;20510;-77
2022/04/04 04:20:26;;;;;;;6.00;5.43;;;4.70;99.90;;;;;;5017330;28;20581;-77
2022/04/04 04:23:03;;;;;;;8.45;5.65;;;4.70;99.90;;;;;;5008978;28;20187;-77
2022/04/04 04:25:31;;;;;;;6.70;5.65;;;4.80;99.90;;;;;;4993275;28;20566;-77
2022/04/04 04:27:59;;;;;;;7.20;5.78;;;4.80;99.90;;;;;;4993766;28;20263;-79
2022/04/04 04:30:25;;;;;;;6.07;5.40;;;4.80;99.90;;;;;;4994692;28;20179;-77
2022/04/04 04:32:53;;;;;;;6.57;5.53;;;4.80;99.90;;;;;;4995716;28;20527;-77
2022/04/04 04:35:19;;;;;;;10.70;5.55;;;4.80;99.90;;;;;;4994488;28;20602;-77
2022/04/04 04:37:46;;;;;;;6.25;5.65;;;4.90;99.90;;;;;;4992717;28;20175;-77
2022/04/04 04:40:12;;;;;;;6.22;5.60;;;4.90;99.90;;;;;;4992829;28;20171;-77
2022/04/04 04:42:39;;;;;;;5.60;4.85;;;5.00;99.90;;;;;;4993533;28;20206;-77
2022/04/04 04:45:06;;;;;;;9.85;5.90;;;5.00;99.90;;;;;;4991962;28;20199;-77
2022/04/04 04:47:32;;;;;;;7.60;6.00;;;5.00;99.90;;;;;;4993425;28;20701;-77
2022/04/04 04:49:59;;;;;;;6.10;5.57;;;5.00;99.90;;;;;;4992470;28;20181;-77
2022/04/04 04:52:26;;;;;;;7.82;6.10;;;5.10;99.90;;;;;;4992295;28;20175;-78
2022/04/04 04:54:52;;;;;;;6.70;5.18;;;5.10;99.90;;;;;;4976788;28;20190;-77
2022/04/04 04:57:19;;;;;;;7.10;5.57;;;5.10;99.90;;;;;;4993398;28;20178;-77
2022/04/04 04:59:46;;;;;;;6.40;5.78;;;5.10;99.90;;;;;;4993240;28;20172;-77
2022/04/04 05:02:12;;;;;;;9.77;4.50;;;5.20;99.90;;;;;;4992779;28;20190;-77
2022/04/04 05:04:38;;;;;;;6.13;5.27;;;5.20;99.90;;;;;;4992933;28;20674;-77
2022/04/04 05:07:07;;;;;;;6.85;5.45;;;5.20;99.90;;;;;;4992153;28;20651;-78
2022/04/04 05:09:33;;;;;;;6.50;4.80;;;5.20;99.90;;;;;;4993049;28;20194;-77
2022/04/04 05:11:59;;;;;;;6.97;4.68;;;5.30;99.90;;;;;;4993005;28;20167;-77
2022/04/04 05:14:25;;;;;;;7.87;5.33;;;5.30;99.90;;;;;;4993406;28;20494;-77
2022/04/04 05:16:53;;;;;;;6.97;5.40;;;5.30;99.90;;;;;;4993002;28;21141;-77
2022/04/04 05:19:19;;;;;;;5.32;4.38;;;5.40;99.90;;;;;;4991079;28;20191;-77
2022/04/04 05:21:46;;;;;;;6.05;5.15;;;5.40;99.90;;;;;;4992887;28;20246;-78
2022/04/04 05:24:12;;;;;;;5.15;4.65;;;5.50;99.90;;;;;;4991319;28;20603;-78
2022/04/04 05:26:38;;;;;;;5.43;4.38;;;5.50;99.90;;;;;;4992748;28;20179;-78
2022/04/04 05:29:05;;;;;;;5.03;4.30;;;5.60;99.90;;;;;;4975124;28;20706;-77
2022/04/04 05:31:31;;;;;;;5.65;4.90;;;5.70;99.90;;;;;;4991350;28;20230;-77
2022/04/04 05:33:58;;;;;;;5.95;4.55;;;5.70;99.90;;;;;;4992750;28;20213;-78
2022/04/04 05:36:28;;;;;;;6.22;5.43;;;5.70;99.90;;;;;;4993239;28;20191;-78
2022/04/04 05:38:55;;;;;;;5.63;4.43;;;5.80;99.90;;;;;;4993000;28;20163;-78
2022/04/04 05:41:21;;;;;;;5.40;4.55;;;5.90;99.90;;;;;;4992236;28;20167;-78
2022/04/04 05:43:47;;;;;;;5.75;4.82;;;6.00;99.90;;;;;;4993636;28;20206;-77
2022/04/04 05:46:15;;;;;;;6.88;5.55;;;6.00;99.90;;;;;;4991499;28;20191;-77
2022/04/04 05:48:41;;;;;;;5.55;4.95;;;6.10;99.90;;;;;;4991213;28;20175;-76
2022/04/04 05:51:08;;;;;;;8.95;5.47;;;6.10;99.90;;;;;;4991531;28;20533;-75
2022/04/04 05:53:34;;;;;;;7.05;5.75;;;6.30;99.90;;;;;;4992746;28;20171;-76
2022/04/04 05:56:00;;;;;;;7.07;5.75;;;6.30;99.90;;;;;;4992246;28;20245;-76
2022/04/04 05:58:26;;;;;;;7.10;6.40;;;6.40;99.90;;;;;;4992166;28;20261;-75
2022/04/04 06:00:51;;;;;;;7.93;5.97;;;6.50;99.90;;;;;;4991080;28;20182;-75
2022/04/04 06:03:18;;;;;;;8.70;5.70;;;6.50;99.90;;;;;;4990213;28;20309;-76
2022/04/04 06:05:47;;;;;;;6.57;5.45;;;6.60;99.90;;;;;;5003846;28;20190;-76
2022/04/04 06:08:13;;;;;;;7.85;5.63;;;6.70;99.90;;;;;;5008247;28;20623;-75
2022/04/04 06:10:39;;;;;;;6.60;5.80;;;6.80;99.90;;;;;;5011753;28;20166;-75
2022/04/04 06:13:04;;;;;;;9.87;5.37;;;6.80;99.90;;;;;;4995341;28;20685;-75
2022/04/04 06:15:30;;;;;;;7.60;6.27;;;6.90;99.90;;;;;;4992989;28;20284;-76
2022/04/04 06:17:56;;;;;;;5.43;4.97;;;7.00;99.90;;;;;;5002689;28;20651;-75
2022/04/04 06:20:22;;;;;;;6.90;5.67;;;7.10;99.90;;;;;;4990232;28;20588;-75
2022/04/04 06:22:47;;;;;;;7.87;6.77;;;7.10;99.90;;;;;;4991875;28;20289;-76
2022/04/04 06:25:14;;;;;;;10.20;6.40;;;7.20;99.90;;;;;;4997738;28;20202;-76
2022/04/04 06:27:40;;;;;;;7.75;5.90;;;7.20;99.90;;;;;;4992782;28;20183;-76
2022/04/04 06:30:07;;;;;;;8.35;6.25;;;7.30;99.90;;;;;;4990491;28;20170;-76
2022/04/04 06:32:33;;;;;;;7.07;5.97;;;7.40;99.90;;;;;;4990740;28;20179;-76
2022/04/04 06:34:59;;;;;;;9.47;6.30;;;7.50;99.90;;;;;;5003439;28;20244;-76
2022/04/04 06:37:25;;;;;;;6.27;5.50;;;7.60;99.90;;;;;;5011305;28;20587;-76
2022/04/04 06:39:51;;;;;;;6.30;5.70;;;7.70;99.90;;;;;;5011401;28;20915;-76
2022/04/04 06:42:17;;;;;;;6.53;5.80;;;7.80;99.90;;;;;;5010142;28;20232;-76
2022/04/04 06:44:43;;;;;;;6.73;5.60;;;7.90;99.90;;;;;;5011271;28;20585;-76
2022/04/04 06:47:10;;;;;;;6.95;5.50;;;8.00;99.90;;;;;;5011167;28;20562;-76
2022/04/04 06:49:35;;;;;;;6.97;5.50;;;8.10;99.90;;;;;;5010038;28;20174;-76
2022/04/04 06:52:01;;;;;;;7.87;6.80;;;8.20;99.90;;;;;;5011782;28;20769;-76
2022/04/04 06:54:27;;;;;;;6.28;4.80;;;8.30;99.90;;;;;;5008202;28;20236;-76
2022/04/04 06:56:53;;;;;;;5.53;4.90;;;8.40;99.90;;;;;;5012888;28;20257;-76
2022/04/04 06:59:19;;;;;;;6.00;4.95;;;8.50;99.90;;;;;;5014674;28;20584;-77
2022/04/04 07:01:46;;;;;;;6.00;5.18;;;8.70;99.90;;;;;;5014704;28;20158;-76
2022/04/04 07:04:12;;;;;;;5.10;4.60;;;8.80;99.90;;;;;;5013454;28;20197;-76
2022/04/04 07:06:38;;;;;;;5.40;4.90;;;9.00;99.90;;;;;;5014523;28;20162;-76
2022/04/04 07:09:04;;;;;;;8.40;5.83;;;9.30;99.90;;;;;;5014260;28;20181;-76
2022/04/04 07:11:30;;;;;;;4.80;4.20;;;9.60;99.90;;;;;;5014655;28;20580;-76
2022/04/04 07:13:56;;;;;;;5.90;4.43;;;10.20;99.90;;;;;;5014811;28;20201;-74
2022/04/04 07:16:22;;;;;;;5.47;4.35;;;10.80;99.90;;;;;;5013441;28;20705;-74
2022/04/04 07:18:48;;;;;;;3.83;3.40;;;11.40;99.90;;;;;;5014340;28;20178;-75
2022/04/04 07:21:15;;;;;;;6.07;3.88;;;12.10;99.90;;;;;;5014623;28;20586;-76
2022/04/04 07:23:41;;;;;;;4.40;3.90;;;12.90;99.90;;;;;;5013413;28;20555;-76
2022/04/04 07:26:07;;;;;;;5.70;4.10;;;13.80;99.90;;;;;;5014328;28;20613;-76
2022/04/04 07:28:33;;;;;;;5.10;3.80;;;14.80;99.90;;;;;;5012614;28;20576;-76
2022/04/04 07:31:00;;;;;;;4.10;3.27;;;15.60;99.00;;;;;;5014152;28;20584;-75
2022/04/04 07:33:28;;;;;;;4.20;3.00;;;16.30;99.40;;;;;;5014346;28;21132;-75
2022/04/04 07:35:54;;;;;;;4.70;3.93;;;16.80;98.50;;;;;;5015044;28;20711;-75
2022/04/04 07:38:26;;;;;;;5.47;4.33;;;17.20;97.10;;;;;;5013103;28;20581;-75
2022/04/04 07:40:52;;;;;;;4.67;2.50;;;17.50;95.70;;;;;;5014304;28;20678;-74
2022/04/04 07:43:17;;;;;;;3.00;2.70;;;17.50;93.80;;;;;;5011320;28;20206;-75
2022/04/04 07:45:43;;;;;;;3.43;2.80;;;17.40;92.50;;;;;;4994697;28;20218;-75
2022/04/04 07:48:11;;;;;;;2.90;2.70;;;17.30;91.50;;;;;;4994102;28;20179;-75
2022/04/04 07:50:37;;;;;;;4.50;2.50;;;17.10;90.10;;;;;;4994239;28;20171;-75
2022/04/04 07:53:03;;;;;;;2.70;2.30;;;16.90;90.00;;;;;;4994079;28;20577;-75
2022/04/04 07:55:29;;;;;;;4.17;2.60;;;16.80;89.30;;;;;;4993948;28;21158;-76
2022/04/04 07:57:54;;;;;;;2.90;2.30;;;16.80;89.30;;;;;;4992647;28;20570;-75
2022/04/04 08:00:21;;;;;;;3.60;2.30;;;16.70;88.30;;;;;;4993877;28;20646;-75
2022/04/04 08:02:47;;;;;;;2.27;1.60;;;16.60;87.30;;;;;;4993924;28;20203;-75
2022/04/04 08:05:14;;;;;;;2.77;1.60;;;16.40;85.70;;;;;;4989596;28;20617;-75
2022/04/04 08:07:43;;;;;;;4.63;1.70;;;16.20;85.50;;;;;;5000823;28;20606;-76
2022/04/04 08:10:11;;;;;;;6.50;2.33;;;16.00;83.70;;;;;;4993674;28;20575;-75
2022/04/04 08:12:36;;;;;;;2.97;1.60;;;15.80;81.80;;;;;;4993937;28;20601;-75
2022/04/04 08:15:03;;;;;;;9.30;1.97;;;15.50;79.80;;;;;;4976139;28;20714;-75
2022/04/04 08:17:28;;;;;;;2.23;1.73;;;15.20;78.30;;;;;;5003403;28;20182;-74
2022/04/04 08:19:54;;;;;;;2.50;1.50;;;15.10;78.90;;;;;;5011836;28;20569;-74
2022/04/04 08:22:22;;;;;;;2.53;1.83;;;15.00;78.50;;;;;;5013165;28;20593;-74
2022/04/04 08:24:49;;;;;;;6.50;2.90;;;14.90;79.30;;;;;;5013355;28;20628;-75
2022/04/04 08:27:15;;;;;;;2.30;1.90;;;14.70;76.80;;;;;;5013119;28;21171;-76
2022/04/04 08:29:42;;;;;;;3.27;1.83;;;14.50;76.00;;;;;;5011261;28;20588;-75
2022/04/04 08:32:08;;;;;;;3.90;1.80;;;14.30;76.70;;;;;;5011631;28;20647;-75
2022/04/04 08:34:34;;;;;;;4.28;2.78;;;14.10;76.80;;;;;;5013193;28;20277;-76
2022/04/04 08:37:00;;;;;;;2.30;1.60;;;13.90;76.60;;;;;;5010203;28;20242;-75
2022/04/04 08:39:26;;;;;;;3.03;2.08;;;13.90;77.20;;;;;;4997612;28;20595;-76
2022/04/04 08:41:56;;;;;;;3.20;2.00;;;13.80;77.50;;;;;;4993399;28;20201;-75
2022/04/04 08:44:22;;;;;;;5.47;1.70;;;13.80;77.50;;;;;;4986661;28;20706;-75
2022/04/04 08:46:48;;;;;;;7.07;2.00;;;13.80;77.90;;;;;;4989222;28;20649;-76
2022/04/04 08:49:14;;;;;;;3.03;1.90;;;13.80;77.80;;;;;;4992019;28;20544;-76
2022/04/04 08:51:42;;;;;;;3.33;2.20;;;13.80;76.50;;;;;;5007766;28;20170;-75
2022/04/04 08:54:08;;;;;;;3.20;1.60;;;13.80;77.00;;;;;;5004232;28;20184;-75
2022/04/04 08:56:34;;;;;;;4.35;1.80;;;13.80;75.20;;;;;;5009748;28;21172;-75
2022/04/04 08:59:00;;;;;;;4.13;1.88;;;13.80;75.20;;;;;;5009271;28;20174;-75
2022/04/04 09:01:27;;;;;;;3.50;1.80;;;13.70;73.90;;;;;;5007559;28;20209;-74
2022/04/04 09:04:01;;;;;;;4.70;2.45;;;13.70;75.10;;;;;;5010247;28;20629;-74
2022/04/04 09:06:28;;;;;;;3.80;1.73;;;13.60;71.80;;;;;;5005083;28;20281;-73
2022/04/04 09:08:56;;;;;;;2.60;2.10;;;13.60;74.20;;;;;;5000313;28;20178;-74
2022/04/04 09:11:22;;;;;;;1.80;1.33;;;13.60;73.40;;;;;;5010090;28;20167;-74
2022/04/04 09:14:04;;;;;;;3.00;1.73;;;13.50;73.70;;;;;;5010847;28;20240;-74
2022/04/04 09:16:29;;;;;;;3.17;1.77;;;13.50;72.50;;;;;;5005254;28;20194;-74
2022/04/04 09:18:55;;;;;;;2.23;1.70;;;13.40;71.90;;;;;;5009305;28;20167;-74
2022/04/04 09:21:21;;;;;;;2.67;1.43;;;13.40;72.10;;;;;;5012173;28;20182;-74
2022/04/04 09:23:47;;;;;;;7.00;2.53;;;13.30;71.40;;;;;;5001382;28;20206;-74
2022/04/04 09:26:35;;;;;;;2.20;1.60;;;13.20;71.40;;;;;;5010647;28;20206;-74
2022/04/04 09:29:18;;;;;;;3.03;2.20;;;13.10;70.20;;;;;;5002171;28;20178;-73
2022/04/04 09:32:11;;;;;;;3.28;1.73;;;13.00;71.10;;;;;;4996808;28;20179;-73
2022/04/04 09:34:53;;;;;;;2.10;1.50;;;12.90;71.00;;;;;;4992858;28;20205;-73
2022/04/04 09:37:24;;;;;;;4.18;1.45;;;12.90;71.40;;;;;;5003555;28;20188;-74
2022/04/04 09:40:03;;;;;;;2.40;1.75;;;12.90;72.00;;;;;;4994561;28;20245;-74
2022/04/04 09:42:31;;;;;;;2.45;1.67;;;12.90;71.40;;;;;;5000989;28;20210;-76
2022/04/04 09:44:59;;;;;;;3.45;1.70;;;13.00;73.20;;;;;;5008618;28;20281;-75
2022/04/04 09:47:48;;;;;;;5.45;2.00;;;13.10;72.80;;;;;;5000448;28;20179;-76
2022/04/04 09:50:38;;;;;;;2.60;1.70;;;13.10;72.20;;;;;;5001485;28;20651;-75
2022/04/04 09:53:06;;;;;;;1.95;1.48;;;13.10;71.90;;;;;;5004514;28;20228;-74
2022/04/04 09:55:33;;;;;;;5.18;1.85;;;13.10;73.00;;;;;;5008955;28;20690;-74
2022/04/04 09:58:01;;;;;;;3.65;2.05;;;13.20;73.00;;;;;;5010845;28;20268;-73
2022/04/04 10:00:27;;;;;;;4.68;1.90;;;13.10;71.80;;;;;;5010552;28;20256;-73
2022/04/04 10:02:57;;;;;;;3.70;1.80;;;13.10;71.50;;;;;;5002487;28;20248;-75
2022/04/04 10:05:27;;;;;;;4.05;2.15;;;13.00;70.70;;;;;;5008465;28;20202;-75
2022/04/04 10:07:55;;;;;;;4.55;2.35;;;12.90;70.90;;;;;;5001077;28;20517;-74
2022/04/04 10:10:26;;;;;;;4.43;2.65;;;12.80;70.60;;;;;;5010726;28;20654;-74
2022/04/04 10:12:53;;;;;;;3.40;2.72;;;12.70;70.50;;;;;;5006320;28;20181;-74
2022/04/04 10:15:21;;;;;;;3.08;2.35;;;12.70;71.10;;;;;;5006418;28;20209;-74
2022/04/04 10:17:48;;;;;;;4.82;2.10;;;12.60;71.80;;;;;;5010010;28;20182;-74
2022/04/04 10:20:14;;;;;;;3.88;2.28;;;12.50;71.50;;;;;;4979475;28;20199;-75
2022/04/04 10:22:40;;;;;;;2.75;2.13;;;12.40;70.90;;;;;;4970918;28;20207;-75
2022/04/04 10:25:07;;;;;;;5.00;2.20;;;12.40;71.20;;;;;;4988344;28;20231;-75
2022/04/04 10:27:37;;;;;;;3.13;2.50;;;12.30;70.90;;;;;;4991393;28;20566;-74
2022/04/04 10:30:05;;;;;;;4.05;3.17;;;12.20;70.80;;;;;;4995564;28;20167;-73
2022/04/04 10:32:32;;;;;;;4.80;2.80;;;12.10;71.50;;;;;;4995531;28;20182;-73
2022/04/04 10:34:58;;;;;;;3.42;2.65;;;12.10;72.00;;;;;;4995225;28;20328;-74
2022/04/04 10:37:31;;;;;;;2.85;2.45;;;12.10;71.90;;;;;;5012085;28;20186;-74
2022/04/04 10:39:56;;;;;;;3.75;2.50;;;12.00;71.70;;;;;;5008104;28;20654;-74
2022/04/04 10:42:25;;;;;;;7.00;3.20;;;12.00;70.50;;;;;;4989591;28;20183;-74
2022/04/04 10:45:07;;;;;;;4.93;2.70;;;11.90;71.20;;;;;;4989726;28;20187;-74
2022/04/04 10:47:38;;;;;;;3.47;2.47;;;11.90;71.00;;;;;;4992757;28;20250;-74
2022/04/04 10:50:22;;;;;;;5.25;3.38;;;11.90;71.80;;;;;;4994855;28;20290;-74
2022/04/04 10:52:50;;;;;;;3.22;2.90;;;11.80;70.20;;;;;;4993746;28;20174;-74
2022/04/04 10:55:27;;;;;;;5.82;3.22;;;11.80;71.90;;;;;;4995067;28;20194;-75
2022/04/04 10:58:09;;;;;;;4.07;3.28;;;11.80;71.40;;;;;;4993509;28;20206;-75
2022/04/04 11:00:52;;;;;;;3.78;3.25;;;11.70;71.60;;;;;;4994029;28;20171;-74
2022/04/04 11:03:26;;;;;;;4.50;3.03;;;11.70;70.80;;;;;;4994173;28;20230;-73
2022/04/04 11:09:15;;;;;;;4.95;2.20;;;11.50;71.50;;;;;;4993713;28;20183;-73
2022/04/04 11:11:56;;;;;;;4.45;2.90;;;11.50;71.70;;;;;;5014323;28;20174;-73
2022/04/04 11:14:28;;;;;;;5.68;3.00;;;11.40;72.50;;;;;;5014826;28;20587;-73
2022/04/04 11:17:19;;;;;;;3.13;2.03;;;11.30;72.90;;;;;;5014605;28;20197;-74
2022/04/04 11:20:03;;;;;;;10.50;2.50;;;11.20;73.30;;;;;;5015241;28;20623;-73
2022/04/04 11:22:41;;;;;;;3.42;2.78;;;11.10;73.90;;;;;;5014203;28;20532;-73
2022/04/04 11:25:12;;;;;;;3.55;2.33;;;11.00;74.20;;;;;;5008044;28;20218;-73
2022/04/04 11:27:40;;;;;;;3.38;3.03;;;11.00;74.70;;;;;;4995653;28;20187;-73
2022/04/04 11:30:16;;;;;;;3.78;2.15;;;11.00;75.10;;;;;;5002212;28;20262;-73
2022/04/04 11:32:42;;;;;;;3.67;2.58;;;10.90;75.00;;;;;;4977267;28;20168;-73
2022/04/04 11:35:18;;;;;;;3.00;2.53;;;10.90;75.50;;;;;;4983418;28;20191;-72
2022/04/04 11:37:55;;;;;;;4.95;3.03;;;10.90;75.60;;;;;;4986362;28;20172;-73
2022/04/04 11:40:29;;;;;;;3.20;2.53;;;11.00;75.50;;;;;;4979010;28;20254;-72
2022/04/04 11:42:57;;;;;;;3.10;2.80;;;10.90;75.30;;;;;;4974749;28;20203;-73
2022/04/04 11:45:26;;;;;;;5.05;2.90;;;10.80;75.80;;;;;;4974647;28;20202;-73
2022/04/04 11:47:58;;;;;;;3.80;2.42;;;10.80;76.10;;;;;;4982533;28;20623;-72
2022/04/04 11:50:28;;;;;;;5.80;2.92;;;10.70;76.90;;;;;;4995310;28;20186;-77
2022/04/04 11:52:59;;;;;;;7.00;3.53;;;10.60;77.00;;;;;;4992879;28;20179;-71
2022/04/04 11:55:27;;;;;;;3.85;3.45;;;10.50;77.70;;;;;;4993389;28;20581;-80
2022/04/04 11:58:00;;;;;;;6.32;3.38;;;10.40;78.60;;;;;;5004031;28;20647;-79
2022/04/04 12:00:33;;;;;;;3.33;2.95;;;10.40;79.10;;;;;;4982149;28;20180;-76
2022/04/04 12:03:09;;;;;;;4.78;3.10;;;10.30;80.50;;;;;;4984708;28;20210;-73
2022/04/04 12:05:38;;;;;;;5.68;3.38;;;10.30;81.00;;;;;;5006255;28;20198;-78
2022/04/04 12:08:06;;;;;;;3.78;2.80;;;10.30;81.00;;;;;;4975266;28;20184;-77
2022/04/04 12:10:32;;;;;;;3.13;2.15;;;10.30;81.50;;;;;;4974961;28;20529;-77
2022/04/04 12:13:10;;;;;;;6.93;2.38;;;10.20;81.90;;;;;;4974592;28;20238;-78
2022/04/04 12:15:43;;;;;;;5.03;2.90;;;10.20;82.60;;;;;;4974813;28;20202;-77
2022/04/04 12:18:10;;;;;;;6.18;3.00;;;10.20;83.60;;;;;;4976470;28;20183;-79
2022/04/04 12:20:43;;;;;;;3.92;2.45;;;10.10;83.80;;;;;;4974749;28;20262;-77
2022/04/04 12:25:57;;;;;;;2.92;2.72;;;10.00;85.00;;;;;;4992481;28;20211;-77
2022/04/04 12:28:26;;;;;;;4.53;2.92;;;10.00;85.10;;;;;;4998037;28;20193;-78
2022/04/04 12:30:55;;;;;;;4.25;3.03;;;9.90;88.10;;;;;;5013300;28;20188;-76
2022/04/04 12:33:31;;;;;;;2.88;2.67;;;9.80;88.70;;;;;;4972483;28;20176;-78
2022/04/04 12:35:57;;;;;;;2.90;2.55;;;9.70;90.80;;;;;;5005283;28;20202;-81
2022/04/04 12:38:28;;;;;;;4.33;3.20;;;9.60;89.20;;;;;;5021549;28;20174;-77
2022/04/04 12:41:09;;;;;;;3.60;3.10;;;9.50;90.00;;;;;;5006913;28;20588;-79
2022/04/04 12:43:37;;;;;;;5.20;2.95;;;9.30;90.70;;;;;;5014306;28;20205;-73
2022/04/04 12:46:19;;;;;;;4.00;3.13;;;9.20;90.70;;;;;;5012591;28;20194;-73
2022/04/04 12:48:45;;;;;;;5.15;3.20;;;9.10;91.20;;;;;;5013014;28;20170;-73
2022/04/04 12:51:25;;;;;;;3.33;3.03;;;8.90;91.70;;;;;;5009226;28;20170;-73
2022/04/04 12:53:53;;;;;;;3.53;3.13;;;8.80;92.80;;;;;;4990450;28;20179;-74
2022/04/04 12:56:20;;;;;;;6.20;3.50;;;8.60;92.90;;;;;;5000994;28;20222;-73
2022/04/04 12:59:04;;;;;;;3.30;3.00;;;8.50;94.00;;;;;;5007797;28;20225;-73
2022/04/04 13:01:30;;;;;;;3.40;3.10;;;8.40;95.50;;;;;;5012047;28;20281;-73
2022/04/04 13:03:56;;;;;;;4.50;3.45;;;8.30;94.60;;;;;;5012133;28;20220;-73
2022/04/04 13:06:23;;;;;;;3.77;2.73;;;8.20;94.80;;;;;;5012798;28;20388;-73